Time;durP1;ratioP1;P1;durP2;ratioP2;P2;SDS_P1;SDS_P2;PMS_P1;PMS_P2;Temp;Humidity;BMP_temperature;BMP_pressure;BME280_temperature;BME280_humidity;BME280_pressure;Samples;Min_cycle;Max_cycle;Signal;HPM_P1;HPM_P2
2022/06/21 00:02:04;;;;;;;4.57;1.90;;;18.70;82.00;;;;;;5041317;28;20163;-95
2022/06/21 00:04:30;;;;;;;3.43;1.93;;;18.90;80.40;;;;;;5041464;28;20163;-96
2022/06/21 00:06:59;;;;;;;4.93;2.30;;;19.00;80.90;;;;;;5041187;28;20203;-96
2022/06/21 00:09:26;;;;;;;5.03;2.47;;;19.10;78.10;;;;;;5041353;28;20160;-95
2022/06/21 00:11:51;;;;;;;3.83;2.00;;;19.10;77.30;;;;;;5041275;28;20163;-95
2022/06/21 00:14:17;;;;;;;5.23;1.90;;;19.10;76.80;;;;;;5041201;28;20244;-95
2022/06/21 00:16:43;;;;;;;4.40;2.10;;;19.10;76.30;;;;;;5041230;28;20182;-96
2022/06/21 00:22:48;;;;;;;6.90;1.93;;;19.10;76.70;;;;;;5041323;28;20179;-96
2022/06/21 00:25:21;;;;;;;6.67;2.40;;;19.20;75.00;;;;;;5041144;28;20165;-96
2022/06/21 00:27:47;;;;;;;4.37;2.00;;;19.20;75.00;;;;;;5040799;28;20213;-96
2022/06/21 00:30:14;;;;;;;3.20;2.00;;;19.20;74.50;;;;;;5040897;28;20185;-96
2022/06/21 00:33:16;;;;;;;2.93;1.97;;;19.30;74.10;;;;;;5040792;28;20192;-96
2022/06/21 00:35:46;;;;;;;5.53;2.47;;;19.30;73.60;;;;;;5040529;28;20177;-94
2022/06/21 00:38:18;;;;;;;2.83;2.03;;;19.30;73.60;;;;;;5040537;28;20164;-96
2022/06/21 00:40:44;;;;;;;4.03;2.20;;;19.30;73.80;;;;;;5040655;28;20175;-95
2022/06/21 00:43:22;;;;;;;1.87;1.77;;;19.30;73.20;;;;;;5040459;28;20184;-95
2022/06/21 00:45:50;;;;;;;2.97;1.50;;;19.30;73.20;;;;;;5040706;28;20184;-95
2022/06/21 00:48:26;;;;;;;3.17;1.87;;;19.40;74.50;;;;;;5040456;28;20193;-96
2022/06/21 00:50:56;;;;;;;3.70;1.83;;;19.40;74.10;;;;;;5040306;28;20156;-94
2022/06/21 00:53:48;;;;;;;5.73;1.90;;;19.40;73.30;;;;;;5040482;28;20169;-95
2022/06/21 00:56:27;;;;;;;3.83;2.00;;;19.40;72.40;;;;;;5038415;28;20230;-94
2022/06/21 00:58:52;;;;;;;4.07;2.17;;;19.30;73.20;;;;;;5040428;28;20159;-94
2022/06/21 01:01:21;;;;;;;5.40;2.50;;;19.30;73.30;;;;;;5040210;28;20212;-96
2022/06/21 01:03:54;;;;;;;5.60;2.40;;;19.20;73.30;;;;;;5039214;28;20253;-94
2022/06/21 01:06:42;;;;;;;5.77;2.57;;;19.10;73.30;;;;;;5023890;28;20167;-94
2022/06/21 01:09:19;;;;;;;4.77;2.87;;;19.00;74.60;;;;;;5040098;28;20178;-95
2022/06/21 01:11:54;;;;;;;4.13;2.33;;;19.00;74.60;;;;;;5040175;28;20157;-94
2022/06/21 01:18:18;;;;;;;4.60;1.80;;;19.20;74.70;;;;;;5040523;28;20145;-93
2022/06/21 01:20:49;;;;;;;2.43;1.77;;;19.40;75.70;;;;;;5039867;28;20166;-94
2022/06/21 01:23:36;;;;;;;3.37;1.70;;;19.50;75.50;;;;;;5039582;28;20194;-95
2022/06/21 01:26:33;;;;;;;3.00;2.13;;;19.60;75.40;;;;;;5039547;28;20165;-94
2022/06/21 01:29:00;;;;;;;3.77;2.53;;;19.70;74.40;;;;;;5039523;28;20178;-96
2022/06/21 01:38:32;;;;;;;3.60;2.47;;;19.60;72.80;;;;;;5039794;28;20184;-96
2022/06/21 01:41:08;;;;;;;5.90;2.73;;;19.60;72.60;;;;;;5039289;28;20208;-95
2022/06/21 01:43:38;;;;;;;3.63;2.40;;;19.50;72.90;;;;;;5039299;28;20160;-96
2022/06/21 01:49:34;;;;;;;4.30;2.80;;;19.50;72.80;;;;;;5039752;28;20218;-95
2022/06/21 01:52:14;;;;;;;4.27;2.60;;;19.40;72.90;;;;;;5038903;28;20181;-95
2022/06/21 01:54:46;;;;;;;5.20;2.83;;;19.40;73.40;;;;;;5039183;28;20160;-96
2022/06/21 02:04:01;;;;;;;6.93;2.70;;;19.40;73.50;;;;;;5038927;28;20172;-96
2022/06/21 02:06:31;;;;;;;2.20;1.57;;;19.40;74.10;;;;;;5038384;28;20180;-95
2022/06/21 02:19:04;;;;;;;3.83;2.60;;;19.40;74.50;;;;;;5017076;28;20250;-95
2022/06/21 02:21:38;;;;;;;4.13;2.57;;;19.50;74.80;;;;;;5017031;28;20178;-95
2022/06/21 02:24:04;;;;;;;4.60;2.50;;;19.40;74.70;;;;;;5051223;28;20169;-95
2022/06/21 02:26:33;;;;;;;4.53;2.67;;;19.40;75.30;;;;;;5037879;28;20184;-96
2022/06/21 02:29:00;;;;;;;5.20;2.33;;;19.40;75.00;;;;;;5037675;28;20239;-95
2022/06/21 02:31:27;;;;;;;4.23;2.40;;;19.40;75.20;;;;;;5037501;28;20204;-95
2022/06/21 02:33:56;;;;;;;6.97;2.80;;;19.30;75.30;;;;;;5036914;28;20184;-95
2022/06/21 02:36:58;;;;;;;3.70;2.40;;;19.30;75.30;;;;;;5037609;28;20243;-95
2022/06/21 02:39:27;;;;;;;3.63;2.40;;;19.30;75.90;;;;;;5036537;28;20248;-95
2022/06/21 02:42:12;;;;;;;5.17;2.60;;;19.30;76.60;;;;;;5037033;28;20180;-95
2022/06/21 02:44:44;;;;;;;5.10;3.00;;;19.30;78.00;;;;;;5037005;28;20242;-95
2022/06/21 02:50:37;;;;;;;4.70;2.50;;;19.30;76.40;;;;;;5037108;28;20276;-95
2022/06/21 02:53:11;;;;;;;7.73;2.30;;;19.30;76.20;;;;;;5036665;28;20252;-95
2022/06/21 02:56:02;;;;;;;3.77;2.10;;;19.20;76.80;;;;;;5037557;28;20181;-94
2022/06/21 02:58:39;;;;;;;4.40;2.50;;;19.20;77.30;;;;;;5037705;28;20200;-93
2022/06/21 03:01:58;;;;;;;4.30;2.40;;;19.30;77.40;;;;;;5037664;28;20171;-93
2022/06/21 03:04:37;;;;;;;2.60;1.80;;;19.30;76.80;;;;;;5036582;28;20164;-93
2022/06/21 03:07:03;;;;;;;5.50;2.70;;;19.40;78.70;;;;;;5036666;28;20184;-94
2022/06/21 03:09:52;;;;;;;3.33;2.70;;;19.40;78.30;;;;;;5037172;28;20169;-93
2022/06/21 03:12:26;;;;;;;5.03;2.67;;;19.40;77.60;;;;;;5037204;28;20178;-94
2022/06/21 03:14:58;;;;;;;3.57;2.90;;;19.30;77.60;;;;;;5036718;28;20191;-93
2022/06/21 03:17:38;;;;;;;5.47;2.90;;;19.30;77.20;;;;;;5038394;28;20164;-93
2022/06/21 03:20:11;;;;;;;3.53;2.60;;;19.10;77.20;;;;;;5038332;28;20162;-93
2022/06/21 03:22:38;;;;;;;5.53;2.53;;;18.90;79.90;;;;;;5038262;28;20173;-91
2022/06/21 03:25:06;;;;;;;5.47;3.13;;;18.90;79.30;;;;;;5038297;28;20178;-93
2022/06/21 03:27:48;;;;;;;3.93;2.47;;;18.90;79.20;;;;;;5040557;28;20204;-92
2022/06/21 03:30:18;;;;;;;5.73;2.60;;;18.90;78.90;;;;;;5041992;28;20194;-93
2022/06/21 03:32:45;;;;;;;2.20;1.80;;;18.90;78.80;;;;;;5042035;28;20161;-92
2022/06/21 03:35:14;;;;;;;1.77;1.60;;;19.00;78.80;;;;;;5042051;28;20167;-93
2022/06/21 03:37:42;;;;;;;6.63;2.90;;;19.10;78.80;;;;;;5041814;28;20165;-94
2022/06/21 03:43:40;;;;;;;4.63;3.30;;;19.20;77.80;;;;;;5042301;28;20193;-92
2022/06/21 03:46:11;;;;;;;5.47;3.10;;;19.20;77.50;;;;;;5041673;28;20188;-92
2022/06/21 03:49:25;;;;;;;3.27;2.07;;;19.30;77.80;;;;;;5041672;28;20284;-93
2022/06/21 03:51:55;;;;;;;5.83;3.30;;;19.30;78.50;;;;;;5037950;28;20181;-93
2022/06/21 03:54:30;;;;;;;5.77;3.17;;;19.30;77.70;;;;;;5038954;28;20168;-93
2022/06/21 03:57:10;;;;;;;5.00;3.00;;;19.30;78.20;;;;;;5039690;28;20572;-93
2022/06/21 03:59:54;;;;;;;3.70;2.03;;;19.30;78.00;;;;;;5039491;28;20205;-93
2022/06/21 04:02:28;;;;;;;3.30;2.20;;;19.30;78.20;;;;;;5039736;28;20157;-93
2022/06/21 04:05:03;;;;;;;3.50;2.40;;;19.30;77.30;;;;;;5039718;28;20157;-93
2022/06/21 04:07:49;;;;;;;4.67;2.70;;;19.40;78.00;;;;;;5040009;28;20189;-93
2022/06/21 04:10:54;;;;;;;4.73;2.50;;;19.30;77.80;;;;;;5059009;28;20207;-93
2022/06/21 04:13:44;;;;;;;5.03;2.80;;;19.30;77.40;;;;;;5042958;28;20208;-93
2022/06/21 04:16:26;;;;;;;5.03;2.90;;;19.40;77.60;;;;;;5039326;28;20177;-93
2022/06/21 04:19:07;;;;;;;4.70;2.67;;;19.30;76.80;;;;;;5039405;28;20176;-93
2022/06/21 04:21:49;;;;;;;8.07;3.53;;;19.30;76.90;;;;;;5038698;28;20162;-93
2022/06/21 04:24:19;;;;;;;4.83;1.67;;;19.30;76.70;;;;;;5040915;28;20175;-93
2022/06/21 04:27:15;;;;;;;1.47;1.37;;;19.30;77.00;;;;;;5040951;28;20170;-94
2022/06/21 04:30:03;;;;;;;2.90;2.50;;;19.50;77.70;;;;;;5040085;28;20195;-93
2022/06/21 04:32:38;;;;;;;5.27;2.80;;;19.60;77.70;;;;;;5040952;28;20173;-93
2022/06/21 04:35:19;;;;;;;3.57;2.57;;;19.60;77.40;;;;;;5040732;28;20192;-92
2022/06/21 04:38:01;;;;;;;3.45;2.50;;;19.70;76.20;;;;;;5040666;28;20185;-93
2022/06/21 04:40:29;;;;;;;2.33;1.87;;;19.70;75.80;;;;;;5040669;28;20181;-92
2022/06/21 04:43:03;;;;;;;5.77;3.20;;;19.80;75.10;;;;;;5040680;28;20165;-93
2022/06/21 04:45:39;;;;;;;2.23;1.90;;;19.80;75.90;;;;;;5040436;28;20190;-92
2022/06/21 04:48:46;;;;;;;3.50;1.70;;;19.80;74.90;;;;;;5059836;28;20216;-92
2022/06/21 04:51:22;;;;;;;3.03;1.70;;;19.90;74.70;;;;;;5040895;28;20204;-95
2022/06/21 04:53:51;;;;;;;2.30;1.90;;;20.00;73.00;;;;;;5040418;28;20205;-94
2022/06/21 04:56:23;;;;;;;3.77;2.10;;;20.10;72.30;;;;;;5040372;28;20167;-93
2022/06/21 05:06:21;;;;;;;6.07;1.90;;;20.40;71.50;;;;;;5040281;28;20166;-95
2022/06/21 05:08:48;;;;;;;2.40;1.73;;;20.50;70.70;;;;;;5039482;28;20230;-94
2022/06/21 05:11:14;;;;;;;3.10;2.00;;;20.50;71.20;;;;;;5039787;28;20168;-95
2022/06/21 05:13:49;;;;;;;3.43;2.57;;;20.60;72.00;;;;;;5039410;28;20189;-94
2022/06/21 05:19:46;;;;;;;3.67;2.10;;;20.70;71.00;;;;;;5039627;28;20198;-94
2022/06/21 05:22:20;;;;;;;2.57;2.10;;;20.70;71.10;;;;;;5039430;28;20161;-94
2022/06/21 05:24:46;;;;;;;3.10;1.87;;;20.80;70.10;;;;;;5039202;28;20169;-95
2022/06/21 05:27:44;;;;;;;5.47;1.97;;;20.90;69.60;;;;;;5039155;28;20284;-94
2022/06/21 05:30:16;;;;;;;3.63;2.00;;;20.90;68.30;;;;;;5036957;28;20172;-94
2022/06/21 05:32:53;;;;;;;4.73;2.13;;;21.00;68.00;;;;;;5036328;28;20173;-94
2022/06/21 05:39:14;;;;;;;4.27;1.87;;;21.20;66.10;;;;;;5037745;28;20206;-94
2022/06/21 05:41:43;;;;;;;6.83;2.60;;;21.20;65.60;;;;;;5038112;28;20204;-96
2022/06/21 05:44:14;;;;;;;5.33;2.00;;;21.30;65.40;;;;;;5038267;28;20209;-94
2022/06/21 05:49:51;;;;;;;5.60;2.00;;;21.40;63.50;;;;;;5037598;28;20245;-95
2022/06/21 05:52:30;;;;;;;4.27;2.30;;;21.50;62.80;;;;;;5037185;28;20162;-93
2022/06/21 06:01:49;;;;;;;5.27;1.93;;;21.90;61.10;;;;;;5039077;28;20249;-94
2022/06/21 06:04:27;;;;;;;5.33;2.33;;;22.00;59.80;;;;;;5039047;28;20196;-94
2022/06/21 06:06:56;;;;;;;3.47;2.40;;;22.10;59.70;;;;;;5038980;28;20177;-94
2022/06/21 06:09:43;;;;;;;4.43;2.10;;;22.20;58.70;;;;;;5039004;28;20169;-95
2022/06/21 06:12:21;;;;;;;5.67;2.50;;;22.30;58.00;;;;;;5038648;28;20173;-93
2022/06/21 06:14:52;;;;;;;6.33;2.20;;;22.50;57.10;;;;;;5038470;28;20176;-94
2022/06/21 06:17:36;;;;;;;4.80;1.90;;;22.70;57.30;;;;;;5038640;28;20284;-92
2022/06/21 06:20:23;;;;;;;5.63;2.00;;;23.30;56.00;;;;;;5038283;28;20158;-94
2022/06/21 06:26:35;;;;;;;8.63;2.80;;;24.10;53.70;;;;;;5038669;28;20169;-96
2022/06/21 06:29:16;;;;;;;3.87;2.20;;;24.50;53.00;;;;;;5038705;28;20191;-94
2022/06/21 06:31:51;;;;;;;3.03;2.00;;;24.60;52.50;;;;;;5038570;28;20171;-95
2022/06/21 06:34:37;;;;;;;6.03;2.00;;;24.80;51.90;;;;;;5037857;28;20167;-95
2022/06/21 06:37:22;;;;;;;5.33;2.27;;;24.90;51.50;;;;;;5036799;28;20176;-94
2022/06/21 06:42:27;;;;;;;5.43;2.57;;;25.00;50.90;;;;;;5007281;28;20572;-11
2022/06/21 06:44:59;;;;;;;4.57;2.13;;;25.10;50.60;;;;;;5008477;28;20360;-10
2022/06/21 06:47:38;;;;;;;3.90;2.10;;;25.10;50.60;;;;;;5008885;28;20315;-11
2022/06/21 06:50:10;;;;;;;4.80;1.97;;;25.20;50.40;;;;;;5007202;28;20173;-10
2022/06/21 06:52:45;;;;;;;4.20;1.90;;;25.20;50.10;;;;;;5007316;28;20180;-9
2022/06/21 06:55:24;;;;;;;3.13;1.80;;;25.30;50.00;;;;;;5007063;28;20251;-12
2022/06/21 06:57:53;;;;;;;2.93;1.70;;;25.40;49.90;;;;;;5007363;28;20181;-10
2022/06/21 07:00:26;;;;;;;4.80;2.17;;;25.60;49.80;;;;;;5009365;28;20181;-9
2022/06/21 07:03:02;;;;;;;3.63;1.67;;;25.60;49.50;;;;;;5012572;28;20543;-10
2022/06/21 07:05:45;;;;;;;3.77;2.00;;;25.70;49.40;;;;;;5013586;28;20219;-10
2022/06/21 07:08:52;;;;;;;5.77;1.90;;;25.70;48.90;;;;;;5013282;28;20231;-10
2022/06/21 07:11:24;;;;;;;4.27;1.70;;;25.60;48.70;;;;;;4975142;28;20624;-9
2022/06/21 07:13:50;;;;;;;3.70;1.40;;;25.70;48.90;;;;;;5007578;28;20185;-9
2022/06/21 07:16:22;;;;;;;3.30;1.67;;;25.80;48.70;;;;;;5011267;28;20204;-10
2022/06/21 07:18:50;;;;;;;2.53;1.57;;;25.80;48.80;;;;;;5013445;28;20532;-9
2022/06/21 07:21:18;;;;;;;2.45;1.50;;;25.90;48.70;;;;;;5013320;28;20169;-9
2022/06/21 07:23:44;;;;;;;3.08;1.60;;;25.90;48.70;;;;;;5012625;28;20314;-9
2022/06/21 07:26:39;;;;;;;2.90;1.67;;;25.90;48.50;;;;;;5013393;28;20667;-10
2022/06/21 07:29:09;;;;;;;4.18;1.70;;;26.00;48.50;;;;;;4990487;28;20199;-8
2022/06/21 07:31:41;;;;;;;5.90;1.92;;;26.00;48.40;;;;;;4994087;28;20167;-9
2022/06/21 07:34:33;;;;;;;4.90;2.17;;;26.10;47.70;;;;;;4993016;28;20373;-9
2022/06/21 07:37:12;;;;;;;2.53;1.60;;;26.10;47.40;;;;;;4993604;28;20189;-9
2022/06/21 07:39:47;;;;;;;3.83;1.83;;;26.10;47.70;;;;;;4992845;28;20502;-10
2022/06/21 07:42:27;;;;;;;3.53;1.65;;;26.20;47.80;;;;;;4993119;28;20189;-10
2022/06/21 07:45:02;;;;;;;4.38;1.75;;;26.20;47.60;;;;;;4993182;28;20375;-11
2022/06/21 07:47:35;;;;;;;2.40;1.40;;;26.30;46.40;;;;;;4995657;28;20718;-10
2022/06/21 07:50:22;;;;;;;4.05;2.10;;;26.30;47.00;;;;;;5001067;28;20285;-10
2022/06/21 07:52:59;;;;;;;4.38;1.80;;;26.40;46.60;;;;;;4992004;28;20170;-9
2022/06/21 07:55:40;;;;;;;3.42;1.75;;;26.40;46.80;;;;;;4991979;28;20547;-8
2022/06/21 07:58:17;;;;;;;4.78;2.13;;;26.40;47.00;;;;;;4992009;28;20258;-8
2022/06/21 08:06:43;;;;;;;2.50;1.38;;;26.50;46.60;;;;;;4992857;28;20205;-10
2022/06/21 08:09:31;;;;;;;2.92;1.70;;;26.50;47.00;;;;;;4991458;28;20170;-9
2022/06/21 08:12:00;;;;;;;3.00;1.50;;;26.50;46.80;;;;;;4993356;28;20276;-9
2022/06/21 08:14:31;;;;;;;3.20;1.80;;;26.40;46.90;;;;;;4992237;28;20162;-9
2022/06/21 08:16:59;;;;;;;2.97;1.60;;;26.50;46.40;;;;;;4991723;28;20167;-9
2022/06/21 08:19:31;;;;;;;4.43;1.88;;;26.50;46.90;;;;;;4992622;28;20186;-10
2022/06/21 08:22:11;;;;;;;2.10;1.70;;;26.40;46.60;;;;;;4992346;28;20174;-10
2022/06/21 08:24:46;;;;;;;2.65;1.70;;;26.50;47.50;;;;;;4991763;28;20426;-11
2022/06/21 08:27:29;;;;;;;3.70;2.10;;;26.50;47.00;;;;;;4992513;28;20341;-9
2022/06/21 08:30:06;;;;;;;2.60;1.75;;;26.60;46.30;;;;;;4992506;28;20372;-9
2022/06/21 08:32:53;;;;;;;2.25;1.45;;;26.60;46.50;;;;;;4992019;28;20232;-9
2022/06/21 08:35:33;;;;;;;2.55;1.60;;;26.50;46.80;;;;;;4988328;28;20284;-10
2022/06/21 08:38:14;;;;;;;3.08;1.50;;;26.50;47.10;;;;;;4993574;28;20224;-10
2022/06/21 08:41:07;;;;;;;2.95;1.30;;;26.40;47.20;;;;;;4993389;28;20277;-9
2022/06/21 08:43:50;;;;;;;3.03;1.63;;;26.40;47.30;;;;;;4991643;28;20262;-9
2022/06/21 08:46:31;;;;;;;4.88;1.85;;;26.40;47.10;;;;;;4991094;28;20185;-10
2022/06/21 08:49:20;;;;;;;3.83;2.10;;;26.40;47.00;;;;;;4992098;28;20209;-10
2022/06/21 08:52:17;;;;;;;5.32;2.13;;;26.50;46.10;;;;;;4992726;28;20166;-8
2022/06/21 08:54:47;;;;;;;4.57;2.13;;;26.50;46.50;;;;;;4991501;28;20178;-9
2022/06/21 08:57:32;;;;;;;2.75;1.60;;;26.60;46.80;;;;;;4991164;28;20198;-8
2022/06/21 09:00:21;;;;;;;3.88;1.80;;;26.70;46.50;;;;;;4993461;28;20313;-8
2022/06/21 09:02:47;;;;;;;3.30;1.58;;;26.70;46.80;;;;;;4989210;28;20170;-10
2022/06/21 09:05:46;;;;;;;3.63;1.67;;;26.70;46.90;;;;;;4991046;28;20329;-8
2022/06/21 09:08:43;;;;;;;2.35;1.60;;;26.70;47.00;;;;;;4991085;28;20237;-9
2022/06/21 09:11:20;;;;;;;2.90;1.70;;;26.70;47.00;;;;;;4992113;28;20297;-10
2022/06/21 09:14:24;;;;;;;2.63;1.58;;;26.80;47.10;;;;;;4990861;28;20579;-10
2022/06/21 09:16:59;;;;;;;3.55;1.40;;;26.80;47.10;;;;;;4991704;28;20170;-10
2022/06/21 09:19:35;;;;;;;2.70;1.60;;;26.80;47.10;;;;;;4990321;28;20332;-10
2022/06/21 09:22:15;;;;;;;3.90;1.70;;;26.90;47.10;;;;;;4990686;28;20449;-10
2022/06/21 09:25:12;;;;;;;2.33;1.63;;;26.90;47.10;;;;;;4989549;28;20166;-9
2022/06/21 09:27:43;;;;;;;3.80;1.60;;;26.90;47.20;;;;;;4991556;28;20431;-10
2022/06/21 09:30:15;;;;;;;2.90;1.73;;;26.80;47.20;;;;;;4991984;28;20169;-9
2022/06/21 09:32:40;;;;;;;2.95;1.70;;;26.80;47.30;;;;;;4991190;28;20288;-8
2022/06/21 09:35:14;;;;;;;2.33;1.80;;;26.70;47.30;;;;;;4989637;28;20751;-10
2022/06/21 09:38:02;;;;;;;2.70;1.55;;;26.80;47.40;;;;;;4990934;28;20232;-9
2022/06/21 09:40:31;;;;;;;2.17;1.52;;;26.80;47.40;;;;;;4990239;28;20189;-10
2022/06/21 09:43:18;;;;;;;2.03;1.52;;;26.70;47.50;;;;;;4989542;28;20182;-9
2022/06/21 09:45:57;;;;;;;2.42;1.60;;;26.70;47.30;;;;;;4991257;28;20174;-9
2022/06/21 09:48:47;;;;;;;2.38;1.38;;;26.70;46.80;;;;;;4994855;28;20233;-10
2022/06/21 09:51:32;;;;;;;2.85;1.60;;;26.60;47.50;;;;;;4997351;28;20531;-10
2022/06/21 09:54:16;;;;;;;1.95;1.42;;;26.60;47.70;;;;;;4993727;28;20174;-8
2022/06/21 09:56:54;;;;;;;3.28;1.70;;;26.60;47.80;;;;;;4988947;28;20252;-8
2022/06/21 09:59:46;;;;;;;3.35;1.50;;;26.50;47.40;;;;;;4989649;28;20265;-9
2022/06/21 10:02:28;;;;;;;2.20;1.42;;;26.60;47.50;;;;;;4989545;28;20265;-9
2022/06/21 10:05:24;;;;;;;2.85;1.67;;;26.50;47.80;;;;;;4990650;28;20167;-10
2022/06/21 10:08:24;;;;;;;3.50;1.73;;;26.50;47.20;;;;;;4982141;28;20218;-10
2022/06/21 10:11:31;;;;;;;2.15;1.48;;;26.50;47.20;;;;;;4996121;28;20178;-10
2022/06/21 10:14:02;;;;;;;2.08;1.40;;;26.40;47.90;;;;;;4995783;28;20190;-9
2022/06/21 10:16:39;;;;;;;3.00;1.60;;;26.40;48.10;;;;;;4996493;28;20548;-8
2022/06/21 10:19:18;;;;;;;2.03;1.40;;;26.30;48.20;;;;;;4993926;28;20633;-9
2022/06/21 10:22:13;;;;;;;3.80;2.00;;;26.30;48.20;;;;;;4988847;28;20170;-9
2022/06/21 10:24:58;;;;;;;2.60;1.53;;;26.30;47.90;;;;;;4968544;28;20208;-9
2022/06/21 10:27:55;;;;;;;2.53;1.60;;;26.30;48.30;;;;;;4988406;28;20193;-11
2022/06/21 10:30:39;;;;;;;1.73;1.30;;;26.20;48.40;;;;;;4988568;28;20170;-9
2022/06/21 10:33:23;;;;;;;3.10;1.60;;;26.30;48.40;;;;;;4988727;28;20316;-9
2022/06/21 10:35:58;;;;;;;2.47;1.50;;;26.30;48.30;;;;;;4988663;28;20166;-10
2022/06/21 10:38:49;;;;;;;1.60;1.40;;;26.30;48.40;;;;;;4990611;28;20193;-10
2022/06/21 10:41:37;;;;;;;3.13;1.43;;;26.30;48.40;;;;;;4986912;28;20186;-10
2022/06/21 10:44:06;;;;;;;1.90;1.50;;;26.20;48.50;;;;;;4989693;28;20178;-10
2022/06/21 10:46:49;;;;;;;1.93;1.30;;;26.20;48.60;;;;;;4988264;28;20392;-10
2022/06/21 10:49:42;;;;;;;3.40;1.70;;;26.20;48.60;;;;;;4987826;28;20186;-10
2022/06/21 10:52:12;;;;;;;3.60;1.37;;;26.20;48.50;;;;;;4986950;28;20273;-9
2022/06/21 10:54:59;;;;;;;3.67;1.70;;;26.20;48.60;;;;;;4988699;28;20170;-10
2022/06/21 10:57:41;;;;;;;3.27;1.67;;;26.10;48.70;;;;;;4988423;28;20584;-9
2022/06/21 11:03:37;;;;;;;2.10;1.53;;;26.10;48.70;;;;;;4988193;28;20233;-10
2022/06/21 11:06:17;;;;;;;2.20;1.47;;;26.10;48.80;;;;;;4988032;28;20307;-9
2022/06/21 11:09:03;;;;;;;5.03;2.20;;;26.00;48.90;;;;;;4987039;28;20258;-8
2022/06/21 11:15:02;;;;;;;3.23;1.70;;;26.00;48.70;;;;;;4988028;28;20448;-10
2022/06/21 11:17:37;;;;;;;3.20;1.60;;;26.00;48.30;;;;;;4987314;28;20202;-9
2022/06/21 11:20:12;;;;;;;4.03;2.07;;;25.90;48.80;;;;;;4987287;28;20367;-10
2022/06/21 11:22:49;;;;;;;2.47;1.50;;;25.90;47.60;;;;;;4985861;28;20333;-10
2022/06/21 11:25:34;;;;;;;3.77;1.73;;;25.90;48.30;;;;;;4987127;28;20683;-9
2022/06/21 11:28:09;;;;;;;2.53;1.60;;;25.80;47.50;;;;;;4988074;28;20454;-10
2022/06/21 11:31:02;;;;;;;3.43;1.60;;;25.80;48.10;;;;;;4987413;28;20170;-10
2022/06/21 11:33:46;;;;;;;2.87;1.70;;;25.80;48.80;;;;;;4987604;28;20443;-10
2022/06/21 11:36:45;;;;;;;2.67;1.60;;;25.80;48.90;;;;;;4988361;28;20166;-9
2022/06/21 11:39:28;;;;;;;4.10;1.73;;;25.80;48.50;;;;;;4981900;28;20188;-10
2022/06/21 11:42:08;;;;;;;2.27;1.70;;;25.80;48.90;;;;;;5014140;28;20182;-10
2022/06/21 11:45:14;;;;;;;2.87;1.63;;;25.80;49.00;;;;;;5011016;28;20177;-11
2022/06/21 11:48:21;;;;;;;3.13;1.40;;;25.80;48.90;;;;;;5008387;28;20602;-9
2022/06/21 11:51:09;;;;;;;4.20;1.63;;;25.70;49.00;;;;;;5009751;28;20567;-11
2022/06/21 11:53:59;;;;;;;3.80;1.73;;;25.70;49.00;;;;;;5010901;28;20621;-10
2022/06/21 11:56:43;;;;;;;2.27;1.50;;;25.80;49.00;;;;;;5010530;28;20523;-11
2022/06/21 11:59:27;;;;;;;3.30;1.57;;;25.80;49.00;;;;;;5011539;28;20736;-9
2022/06/21 12:02:24;;;;;;;3.17;1.83;;;25.70;49.00;;;;;;5009708;28;20567;-8
2022/06/21 12:05:20;;;;;;;3.30;1.70;;;25.70;48.70;;;;;;5008165;28;20555;-10
2022/06/21 12:08:16;;;;;;;5.47;2.10;;;25.70;49.00;;;;;;5010305;28;20197;-8
2022/06/21 12:11:10;;;;;;;2.30;1.50;;;25.80;48.00;;;;;;5009804;28;20253;-9
2022/06/21 12:14:26;;;;;;;2.67;1.90;;;25.70;49.00;;;;;;5005381;28;20185;-10
2022/06/21 12:17:18;;;;;;;4.53;1.90;;;25.70;49.00;;;;;;4986684;28;20193;-9
2022/06/21 12:19:46;;;;;;;2.97;1.80;;;25.70;49.10;;;;;;5008623;28;20280;-10
2022/06/21 12:22:23;;;;;;;4.37;1.97;;;25.70;49.10;;;;;;5011074;28;20170;-9
2022/06/21 12:24:50;;;;;;;3.80;1.77;;;25.70;49.20;;;;;;5009036;28;20377;-10
2022/06/21 12:27:16;;;;;;;2.80;1.60;;;25.70;49.20;;;;;;5010525;28;20629;-9
2022/06/21 12:29:43;;;;;;;4.10;2.03;;;25.70;49.20;;;;;;5009203;28;20213;-9
2022/06/21 12:32:20;;;;;;;3.47;1.50;;;25.70;49.30;;;;;;5008935;28;20188;-10
2022/06/21 12:35:07;;;;;;;3.47;1.70;;;25.70;49.30;;;;;;5008980;28;20188;-11
2022/06/21 12:37:42;;;;;;;2.93;1.70;;;25.70;49.30;;;;;;5014999;28;20269;-11
2022/06/21 12:40:20;;;;;;;1.90;1.63;;;25.70;49.30;;;;;;5016518;28;20170;-10
2022/06/21 12:42:51;;;;;;;4.50;1.90;;;25.70;49.30;;;;;;5011497;28;20260;-11
2022/06/21 12:45:31;;;;;;;4.00;1.90;;;25.80;49.10;;;;;;5009880;28;20173;-9
2022/06/21 12:48:04;;;;;;;2.80;1.33;;;25.70;48.90;;;;;;5010967;28;20205;-10
2022/06/21 12:50:39;;;;;;;4.27;1.80;;;25.70;49.40;;;;;;5010643;28;20255;-8
2022/06/21 12:53:20;;;;;;;2.97;1.57;;;25.70;49.40;;;;;;5011083;28;20193;-8
2022/06/21 12:56:01;;;;;;;2.30;1.63;;;25.70;49.40;;;;;;5010454;28;20201;-9
2022/06/21 12:58:33;;;;;;;4.00;1.63;;;25.70;49.40;;;;;;5009215;28;20489;-10
2022/06/21 13:01:04;;;;;;;4.53;1.77;;;25.70;49.40;;;;;;5010082;28;20268;-11
2022/06/21 13:04:23;;;;;;;3.80;1.97;;;25.70;49.20;;;;;;5008498;28;20181;-9
2022/06/21 13:06:58;;;;;;;3.43;1.80;;;25.70;49.50;;;;;;5006982;28;20204;-9
2022/06/21 13:09:58;;;;;;;4.77;1.80;;;25.70;49.30;;;;;;5009496;28;20177;-10
2022/06/21 13:12:38;;;;;;;4.37;2.10;;;25.70;49.40;;;;;;5008160;28;20559;-10
2022/06/21 13:15:20;;;;;;;6.03;2.10;;;25.70;49.10;;;;;;5009273;28;20202;-9
2022/06/21 13:18:28;;;;;;;3.00;1.60;;;25.70;49.00;;;;;;5009213;28;20167;-10
2022/06/21 13:21:13;;;;;;;3.10;1.80;;;25.70;49.50;;;;;;5007941;28;20165;-9
2022/06/21 13:24:03;;;;;;;7.23;2.07;;;25.80;49.60;;;;;;5007047;28;20184;-9
2022/06/21 13:27:08;;;;;;;2.77;1.60;;;25.80;48.60;;;;;;5007757;28;20234;-9
2022/06/21 13:29:54;;;;;;;3.47;1.70;;;25.70;49.40;;;;;;5006803;28;20180;-10
2022/06/21 13:32:25;;;;;;;3.47;1.87;;;25.80;49.60;;;;;;5009310;28;20204;-9
2022/06/21 13:35:20;;;;;;;3.30;2.00;;;25.70;49.70;;;;;;5008324;28;20274;-9
2022/06/21 13:37:59;;;;;;;4.50;1.67;;;25.70;48.70;;;;;;4989442;28;20186;-9
2022/06/21 13:40:38;;;;;;;3.27;1.80;;;25.70;49.60;;;;;;5007790;28;20176;-9
2022/06/21 13:43:08;;;;;;;4.37;2.00;;;25.70;49.40;;;;;;5008002;28;20170;-9
2022/06/21 13:45:51;;;;;;;3.83;1.67;;;25.70;49.60;;;;;;5009715;28;20181;-8
2022/06/21 13:48:25;;;;;;;3.40;1.87;;;25.70;49.60;;;;;;5008538;28;20583;-10
2022/06/21 13:51:01;;;;;;;4.43;2.20;;;25.80;49.60;;;;;;5010672;28;20267;-9
2022/06/21 13:53:43;;;;;;;5.53;2.40;;;25.80;49.40;;;;;;5010235;28;20165;-11
2022/06/21 13:56:26;;;;;;;4.37;2.07;;;25.80;48.60;;;;;;5009034;28;20165;-9
2022/06/21 13:59:00;;;;;;;2.87;1.77;;;25.80;49.00;;;;;;5009126;28;20165;-9
2022/06/21 14:01:37;;;;;;;4.07;2.17;;;25.80;49.30;;;;;;5009429;28;20174;-9
2022/06/21 14:04:27;;;;;;;3.83;1.73;;;25.80;48.40;;;;;;5008030;28;20232;-9
2022/06/21 14:07:05;;;;;;;3.10;2.00;;;25.80;49.10;;;;;;5007334;28;20166;-9
2022/06/21 14:09:44;;;;;;;5.10;2.20;;;25.80;49.30;;;;;;5008925;28;20229;-9
2022/06/21 14:12:31;;;;;;;4.07;1.80;;;25.80;49.60;;;;;;5007397;28;20363;-10
2022/06/21 14:15:04;;;;;;;4.40;1.90;;;25.90;49.90;;;;;;5007832;28;20176;-11
2022/06/21 14:18:02;;;;;;;6.37;2.00;;;25.90;49.90;;;;;;5008825;28;20315;-11
2022/06/21 14:21:13;;;;;;;2.77;1.90;;;25.90;50.00;;;;;;4984702;28;20434;-10
2022/06/21 14:24:03;;;;;;;4.43;1.90;;;25.90;49.70;;;;;;5007261;28;20477;-9
2022/06/21 14:26:38;;;;;;;2.77;2.10;;;25.90;49.90;;;;;;5007731;28;20602;-9
2022/06/21 14:29:15;;;;;;;5.13;1.87;;;25.80;50.10;;;;;;5007054;28;20208;-11
2022/06/21 14:31:47;;;;;;;5.37;2.23;;;25.90;50.30;;;;;;5006842;28;20449;-9
2022/06/21 14:34:27;;;;;;;5.83;2.10;;;25.90;50.30;;;;;;5008295;28;20168;-10
2022/06/21 14:37:15;;;;;;;2.77;2.10;;;25.90;50.30;;;;;;5007614;28;20157;-9
2022/06/21 14:39:54;;;;;;;2.67;1.90;;;25.90;49.80;;;;;;5008164;28;20455;-9
2022/06/21 14:42:52;;;;;;;3.57;1.90;;;25.90;48.90;;;;;;5008709;28;20204;-11
2022/06/21 14:45:34;;;;;;;5.40;2.23;;;25.90;50.00;;;;;;4998334;28;20374;-9
2022/06/21 14:48:17;;;;;;;3.67;1.70;;;25.90;50.20;;;;;;5007277;28;20301;-10
2022/06/21 14:50:50;;;;;;;4.60;2.00;;;25.90;50.30;;;;;;5007097;28;20421;-10
2022/06/21 14:53:31;;;;;;;4.53;2.00;;;25.90;50.40;;;;;;5007540;28;20172;-12
2022/06/21 14:56:10;;;;;;;4.47;1.83;;;25.90;50.30;;;;;;5007547;28;20267;-10
2022/06/21 14:58:43;;;;;;;3.50;1.77;;;25.90;50.50;;;;;;5006506;28;20609;-9
2022/06/21 15:01:37;;;;;;;4.37;1.77;;;25.90;50.50;;;;;;5008643;28;20327;-12
2022/06/21 15:04:38;;;;;;;4.43;1.87;;;25.90;50.50;;;;;;5008402;28;20521;-10
2022/06/21 15:07:24;;;;;;;5.50;1.90;;;26.00;50.10;;;;;;5007016;28;20646;-9
2022/06/21 15:10:00;;;;;;;5.30;1.67;;;26.00;50.50;;;;;;5001104;28;20174;-11
2022/06/21 15:12:30;;;;;;;4.43;1.73;;;26.00;50.60;;;;;;4987532;28;20280;-10
2022/06/21 15:15:00;;;;;;;2.87;1.87;;;26.00;50.50;;;;;;4991898;28;20468;-11
2022/06/21 15:17:47;;;;;;;4.27;1.77;;;26.00;50.60;;;;;;4992877;28;20276;-12
2022/06/21 15:20:20;;;;;;;5.07;2.03;;;26.00;50.40;;;;;;4995688;28;20170;-9